Nice, France

07:53 CEST le 23 octobre 2014 (GMT +0200)
Nice-Cote d'Azur | Change Station
CLOSE
Current Station
Aéroport
Location: Nice,
Altitude: 10 ft
Stations météo à proximité

Alt. 10 ft 43.65 °N, 7.21 °E | Updated 23 minutes ago

Clear
Ciel dégagé
54 ° F
Paraît 54 ° F
N
10
Vent Variable Vent de Nord

Aujourd'hui
Haut(e) -- | Bas -- ° F
--% Risque de précip.
Hier
Haut(e) -- | Bas -- ° F
Precip. -- pouce
7:55 AM 6:35 PM
Lune descendante, 0% visible
Pression 29.86 pouce
Visibilité -9999.0 Miles terrestres
Nuages
Point de rosée 25 ° F
Humidité 33%
Précipitations 0.00 pouce
Profondeur de la couche neigeuse Non disponible.
UV Non disponible.
Pollen Non disponible.
Qualité de l'air Non disponible.
Flu Activity Non disponible.
METAR LFMN 230530Z 35009KT CAVOK 12/M04 Q1011 NOSIG

More Conditions Fewer Conditions

Pression 29.86 pouce
Visibilité -9999.0 Miles terrestres
Nuages
Point de rosée 25 ° F
Humidité 33%
Précipitations 0.00 pouce
Profondeur de la couche neigeuse Non disponible.
UV Non disponible.
Pollen Non disponible.
Qualité de l'air Non disponible.
Flu Activity Non disponible.
METAR LFMN 230530Z 35009KT CAVOK 12/M04 Q1011 NOSIG

More Conditions Fewer Conditions

10-Day Weather Forecast

Almanac

Astronomie

Oct. 23, 2014 Lever Coucher
Temps réel 07:55 CEST 18:35 CEST
Crépuscule civil 07:25 CEST 19:04 CEST
Crépuscule nautique 06:52 CEST 19:38 CEST
Crépuscule astronomique 06:19 CEST 20:11 CEST
Lune 07:17 CEST 18:27 CEST
Durée de lumière visible 11h 38m
Longueur du jour
10h 40m
Tomorrow will be 2m 48s shorter.
Lune descendante, 0% of the Moon is Illuminated
Aujourd'hui
Lune descendante
Oct 23
Nouveau
Oct 30
Premier quartier
Nov 6
Pleine lune
Nov 14
Dernier quartier

Les extrêmes de température d’hier

Country Highs Country Lows

Community

WunderPhotos

Upload Photos

1,764,188 Photos téléchargées !

Nearby

Qualité de l'air

Not available.

Épaisseur de neige

Not available.

Activité sismique

Ville Distance Mag. Time & Date
No recent earthquake activity has been reported nearby.
Minimum magnitude displayed is 2.5.

Températures des eaux côtières

Lieu Température
Aucun rapport de station

Stations météo à proximité